createdAt,value
2019-01-31T00:02:43.598Z,96480.00
2019-01-31T00:05:58.341Z,96473.16
2019-01-31T00:09:01.125Z,96470.22
2019-01-31T00:12:16.249Z,96475.06
2019-01-31T00:15:12.835Z,96477.62
2019-01-31T00:18:05.901Z,96470.92
2019-01-31T00:20:56.083Z,96478.30
2019-01-31T00:23:49.214Z,96468.44
2019-01-31T00:26:42.255Z,96472.93
2019-01-31T00:29:32.810Z,96472.52
2019-01-31T00:32:31.993Z,96478.94
2019-01-31T00:35:27.981Z,96476.05
2019-01-31T00:38:27.014Z,96479.98
2019-01-31T00:41:41.981Z,96480.80
2019-01-31T00:44:50.295Z,96478.17
2019-01-31T00:48:03.830Z,96486.38
2019-01-31T00:51:00.574Z,96484.86
2019-01-31T00:54:03.153Z,96479.66
2019-01-31T00:57:11.578Z,96481.22
2019-01-31T01:00:11.045Z,96485.41
2019-01-31T01:03:03.647Z,96479.63
2019-01-31T01:05:54.070Z,96484.06
2019-01-31T01:08:44.412Z,96496.75
2019-01-31T01:11:55.589Z,96487.69
2019-01-31T01:14:57.755Z,96492.86
2019-01-31T01:17:47.946Z,96492.75
2019-01-31T01:20:50.524Z,96501.44
2019-01-31T01:23:46.671Z,96507.89
2019-01-31T01:26:43.087Z,96507.84
2019-01-31T01:29:42.652Z,96515.59
2019-01-31T01:32:41.887Z,96512.57
2019-01-31T01:35:32.196Z,96516.33
2019-01-31T01:38:43.472Z,96520.67
2019-01-31T01:41:33.868Z,96520.44
2019-01-31T01:44:27.229Z,96524.05
2019-01-31T01:47:20.897Z,96527.66
2019-01-31T01:50:23.270Z,96520.42
2019-01-31T01:53:49.206Z,96524.36
2019-01-31T01:56:52.085Z,96526.75
2019-01-31T01:59:45.042Z,96531.42
2019-01-31T02:02:41.985Z,96530.34
2019-01-31T02:05:53.382Z,96537.28
2019-01-31T02:09:01.509Z,96542.46
2019-01-31T02:12:09.868Z,96541.52
2019-01-31T02:15:19.747Z,96546.20
2019-01-31T02:18:10.244Z,96545.17
2019-01-31T02:21:22.036Z,96553.59
2019-01-31T02:24:11.919Z,96551.54
2019-01-31T02:27:27.211Z,96550.91
2019-01-31T02:30:29.479Z,96551.88
2019-01-31T02:33:20.139Z,96553.11
2019-01-31T02:36:19.476Z,96555.27
2019-01-31T02:39:15.803Z,96555.46
2019-01-31T02:42:40.092Z,96549.67
2019-01-31T02:45:47.686Z,96549.16
2019-01-31T02:48:37.809Z,96553.66
2019-01-31T02:51:44.756Z,96551.86
2019-01-31T02:54:41.296Z,96553.44
2019-01-31T02:57:40.188Z,96558.26
2019-01-31T03:00:42.598Z,96552.28
2019-01-31T03:03:50.157Z,96553.64
2019-01-31T03:06:59.606Z,96557.94
2019-01-31T03:10:08.764Z,96551.32
2019-01-31T03:13:01.586Z,96554.73
2019-01-31T03:15:52.081Z,96554.27
2019-01-31T03:18:50.944Z,96554.11
2019-01-31T03:21:47.611Z,96549.11
2019-01-31T03:25:02.785Z,96557.61
2019-01-31T03:27:55.643Z,96554.94
2019-01-31T03:31:21.741Z,96555.18
2019-01-31T03:34:45.443Z,96558.77
2019-01-31T03:37:48.296Z,96557.97
2019-01-31T03:40:44.116Z,96555.57
2019-01-31T03:43:37.307Z,96551.76
2019-01-31T03:46:33.425Z,96555.08
2019-01-31T03:49:23.315Z,96555.55
2019-01-31T03:52:44.325Z,96561.64
2019-01-31T03:55:37.487Z,96554.79
2019-01-31T03:58:30.848Z,96551.13
2019-01-31T04:01:38.450Z,96553.32
2019-01-31T04:04:32.035Z,96541.77
2019-01-31T04:07:19.232Z,96547.22
2019-01-31T04:10:18.748Z,96540.64
2019-01-31T04:12:58.183Z,96544.50
2019-01-31T04:15:46.325Z,96543.67
2019-01-31T04:18:33.092Z,96544.55
2019-01-31T04:21:19.889Z,96542.08
2019-01-31T04:24:07.508Z,96536.62
2019-01-31T04:26:55.090Z,96534.70
2019-01-31T04:29:42.616Z,96539.58
2019-01-31T04:32:29.936Z,96537.95
2019-01-31T04:35:17.287Z,96533.56
2019-01-31T04:38:04.586Z,96537.55
2019-01-31T04:40:51.695Z,96543.91
2019-01-31T04:43:39.049Z,96555.52
2019-01-31T04:46:26.548Z,96554.70
2019-01-31T04:49:14.336Z,96560.25
2019-01-31T04:52:01.412Z,96562.85
2019-01-31T04:54:49.022Z,96558.66
2019-01-31T04:57:36.446Z,96562.55
2019-01-31T05:00:23.870Z,96562.13
2019-01-31T05:03:11.712Z,96563.61
2019-01-31T05:05:59.094Z,96575.48
2019-01-31T05:08:46.860Z,96571.59
2019-01-31T05:11:34.591Z,96576.31
2019-01-31T05:14:22.120Z,96579.43
2019-01-31T05:17:10.055Z,96579.43
2019-01-31T05:19:57.477Z,96580.44
2019-01-31T05:22:45.136Z,96574.92
2019-01-31T05:25:32.252Z,96570.55
2019-01-31T05:28:19.084Z,96571.05
2019-01-31T05:31:06.068Z,96571.69
2019-01-31T05:33:53.143Z,96571.36
2019-01-31T05:36:40.253Z,96568.77
2019-01-31T05:39:27.296Z,96574.44
2019-01-31T05:42:15.645Z,96571.69
2019-01-31T05:45:03.069Z,96573.95
2019-01-31T05:47:50.086Z,96576.08
2019-01-31T05:50:37.408Z,96597.79
2019-01-31T05:53:24.853Z,96577.85
2019-01-31T05:56:12.248Z,96586.77
2019-01-31T05:58:59.365Z,96591.75
2019-01-31T06:01:46.992Z,96589.50
2019-01-31T06:04:34.522Z,96582.70
2019-01-31T06:07:23.070Z,96585.59
2019-01-31T06:10:12.448Z,96584.59
2019-01-31T06:12:59.866Z,96588.98
2019-01-31T06:15:47.183Z,96579.44
2019-01-31T06:18:34.533Z,96574.88
2019-01-31T06:21:22.035Z,96579.23
2019-01-31T06:24:12.736Z,96585.39
2019-01-31T06:26:59.877Z,96587.58
2019-01-31T06:29:47.174Z,96586.55
2019-01-31T06:32:34.597Z,96585.78
2019-01-31T06:35:24.274Z,96590.09
2019-01-31T06:38:11.492Z,96593.22
2019-01-31T06:40:59.033Z,96586.91
2019-01-31T06:43:46.337Z,96596.77
2019-01-31T06:46:33.966Z,96599.83
2019-01-31T06:49:21.188Z,96357.09
2019-01-31T06:52:08.250Z,96603.20
2019-01-31T06:54:55.356Z,96607.14
2019-01-31T06:57:42.653Z,96608.27
2019-01-31T07:00:29.908Z,96602.36
2019-01-31T07:03:17.101Z,96605.77
2019-01-31T07:06:04.899Z,96604.86
2019-01-31T07:08:52.233Z,96606.22
2019-01-31T07:11:39.349Z,96602.28
2019-01-31T07:14:27.084Z,96602.58
2019-01-31T07:17:14.509Z,96607.08
2019-01-31T07:20:01.632Z,96608.56
2019-01-31T07:22:48.843Z,96611.15
2019-01-31T07:25:37.286Z,96612.05
2019-01-31T07:28:24.828Z,96614.86
2019-01-31T07:31:13.476Z,96612.11
2019-01-31T07:34:01.913Z,96614.09
2019-01-31T07:36:49.245Z,96608.94
2019-01-31T07:39:36.604Z,96610.73
2019-01-31T07:42:24.087Z,96618.33
2019-01-31T07:45:17.762Z,96621.91
2019-01-31T07:48:05.894Z,96624.19
2019-01-31T07:50:54.245Z,96629.03
2019-01-31T07:53:41.567Z,96629.03
2019-01-31T07:56:29.344Z,96632.25
2019-01-31T07:59:16.408Z,96631.59
2019-01-31T08:02:04.145Z,96635.10
2019-01-31T08:04:51.462Z,96634.28
2019-01-31T08:07:39.090Z,96637.34
2019-01-31T08:10:38.331Z,96638.65
2019-01-31T08:13:25.773Z,96633.45
2019-01-31T08:16:12.633Z,96635.34
2019-01-31T08:19:00.359Z,96639.80
2019-01-31T08:21:47.986Z,96635.20
2019-01-31T08:24:35.001Z,96642.48
2019-01-31T08:27:22.073Z,96640.29
2019-01-31T08:30:14.877Z,96645.55
2019-01-31T08:33:01.872Z,96640.06
2019-01-31T08:35:49.000Z,96640.77
2019-01-31T08:38:36.786Z,96644.14
2019-01-31T08:41:24.098Z,96646.70
2019-01-31T08:44:11.385Z,96640.39
2019-01-31T08:46:58.738Z,96641.30
2019-01-31T08:49:46.224Z,96644.55
2019-01-31T08:52:33.544Z,96647.67
2019-01-31T08:55:20.971Z,96651.19
2019-01-31T08:58:08.803Z,96654.97
2019-01-31T09:00:56.532Z,96654.80
2019-01-31T09:03:43.857Z,96648.84
2019-01-31T09:06:31.186Z,96651.45
2019-01-31T09:09:19.312Z,96654.67
2019-01-31T09:12:15.089Z,96650.84
2019-01-31T09:14:55.903Z,96650.77
2019-01-31T09:17:43.244Z,96650.97
2019-01-31T09:20:40.273Z,96657.55
2019-01-31T09:23:46.240Z,96652.02
2019-01-31T09:26:41.699Z,96660.88
2019-01-31T09:29:34.670Z,96661.85
2019-01-31T09:32:27.754Z,96661.40
2019-01-31T09:35:20.915Z,96661.13
2019-01-31T09:38:20.735Z,96660.20
2019-01-31T09:41:28.325Z,96655.60
2019-01-31T09:44:30.492Z,96658.73
2019-01-31T09:47:23.696Z,96660.05
2019-01-31T09:50:28.104Z,96659.27
2019-01-31T09:53:51.439Z,96657.16
2019-01-31T09:57:19.005Z,96194.36
2019-01-31T10:00:27.567Z,96653.98
2019-01-31T10:03:42.941Z,96659.48
2019-01-31T10:06:33.091Z,96653.75
2019-01-31T10:09:23.303Z,96659.07
2019-01-31T10:12:16.816Z,96649.75
2019-01-31T10:15:21.830Z,96650.00
2019-01-31T10:18:18.341Z,96645.50
2019-01-31T10:21:15.165Z,96650.80
2019-01-31T10:24:17.833Z,96650.05
2019-01-31T10:27:28.928Z,96649.56
2019-01-31T10:30:22.184Z,96647.80
2019-01-31T10:33:24.772Z,96645.59
2019-01-31T10:36:30.527Z,96635.73
2019-01-31T10:39:35.734Z,96646.33
2019-01-31T10:42:28.481Z,96632.47
2019-01-31T10:45:24.807Z,96627.84
2019-01-31T10:48:33.326Z,96623.50
2019-01-31T10:51:26.620Z,96623.41
2019-01-31T10:54:23.155Z,96618.14
2019-01-31T10:57:16.931Z,96608.17
2019-01-31T11:00:12.351Z,96600.84
2019-01-31T11:03:37.294Z,96598.17
2019-01-31T11:06:33.887Z,96602.11
2019-01-31T11:09:36.477Z,96596.45
2019-01-31T11:12:35.684Z,96594.53
2019-01-31T11:15:43.978Z,96590.55
2019-01-31T11:18:40.618Z,96591.59
2019-01-31T11:21:42.686Z,96588.08
2019-01-31T11:24:47.813Z,96589.70
2019-01-31T11:27:59.210Z,96593.63
2019-01-31T11:31:05.575Z,96586.70
2019-01-31T11:34:14.402Z,96589.70
2019-01-31T11:37:13.605Z,96570.13
2019-01-31T11:40:37.690Z,96581.94
2019-01-31T11:43:31.765Z,96567.90
2019-01-31T11:46:39.980Z,96567.17
2019-01-31T11:49:45.307Z,96564.65
2019-01-31T11:52:45.442Z,96552.53
2019-01-31T11:55:54.481Z,96548.13
2019-01-31T11:58:50.295Z,96555.78
2019-01-31T12:01:38.333Z,96552.14
2019-01-31T12:04:25.654Z,96559.30
2019-01-31T12:07:13.558Z,96552.39
2019-01-31T12:10:01.018Z,96548.88
2019-01-31T12:12:48.440Z,96546.90
2019-01-31T12:15:36.065Z,96547.63
2019-01-31T12:18:23.294Z,96534.73
2019-01-31T12:21:10.790Z,96540.34
2019-01-31T12:23:58.133Z,96541.45
2019-01-31T12:26:45.459Z,96538.29
2019-01-31T12:29:32.981Z,96539.22
2019-01-31T12:32:20.694Z,96540.82
2019-01-31T12:35:08.609Z,96533.53
2019-01-31T12:37:55.777Z,96544.01
2019-01-31T12:40:43.507Z,96530.02
2019-01-31T12:43:35.215Z,96534.38
2019-01-31T12:46:19.575Z,96538.23
2019-01-31T12:49:07.303Z,96529.49
2019-01-31T12:51:55.242Z,96522.38
2019-01-31T12:54:42.667Z,96518.88
2019-01-31T12:57:30.605Z,96514.86
2019-01-31T13:00:27.145Z,96517.70
2019-01-31T13:03:14.360Z,96521.01
2019-01-31T13:06:02.393Z,96507.27
2019-01-31T13:08:50.129Z,96508.07
2019-01-31T13:11:37.857Z,96508.56
2019-01-31T13:14:24.769Z,96507.93
2019-01-31T13:17:12.406Z,96499.71
2019-01-31T13:20:00.543Z,96502.89
2019-01-31T13:22:49.547Z,96497.42
2019-01-31T13:25:37.138Z,96495.48
2019-01-31T13:28:24.663Z,96489.34
2019-01-31T13:31:11.976Z,96491.95
2019-01-31T13:33:58.886Z,96491.24
2019-01-31T13:36:46.423Z,96488.87
2019-01-31T13:39:33.744Z,96490.18
2019-01-31T13:42:21.263Z,96492.45
2019-01-31T13:45:11.697Z,96501.14
2019-01-31T13:48:02.164Z,96492.55
2019-01-31T13:50:49.541Z,96487.91
2019-01-31T13:53:37.334Z,96490.83
2019-01-31T13:56:24.265Z,96492.86
2019-01-31T13:59:11.641Z,96495.16
2019-01-31T14:01:59.065Z,96496.67
2019-01-31T14:04:46.695Z,96496.17
2019-01-31T14:07:33.815Z,96493.73
2019-01-31T14:10:29.576Z,96490.02
2019-01-31T14:13:16.755Z,96493.13
2019-01-31T14:16:04.480Z,96493.63
2019-01-31T14:18:53.484Z,96497.55
2019-01-31T14:21:40.649Z,96497.55
2019-01-31T14:24:28.092Z,96498.67
2019-01-31T14:27:15.816Z,96496.78
2019-01-31T14:30:03.040Z,96504.89
2019-01-31T14:32:50.870Z,96505.47
2019-01-31T14:35:38.807Z,96506.09
2019-01-31T14:38:26.230Z,96499.42
2019-01-31T14:41:13.344Z,96498.42
2019-01-31T14:44:00.975Z,96498.59
2019-01-31T14:46:47.948Z,96492.74
2019-01-31T14:49:35.211Z,96502.33
2019-01-31T14:52:22.733Z,96502.80
2019-01-31T14:55:11.437Z,96500.58
2019-01-31T14:57:58.915Z,96496.42
2019-01-31T15:00:46.548Z,96497.41
2019-01-31T15:03:34.174Z,96497.49
2019-01-31T15:06:21.497Z,96500.86
2019-01-31T15:09:09.432Z,96501.34
2019-01-31T15:11:56.753Z,96495.60
2019-01-31T15:14:43.664Z,96499.55
2019-01-31T15:17:30.793Z,96495.39
2019-01-31T15:20:34.440Z,96499.30
2019-01-31T15:23:13.099Z,96497.00
2019-01-31T15:26:00.424Z,96490.83
2019-01-31T15:28:47.439Z,96490.59
2019-01-31T15:31:34.864Z,96493.59
2019-01-31T15:34:22.656Z,96495.25
2019-01-31T15:37:10.333Z,96486.40
2019-01-31T15:39:59.508Z,96490.73
2019-01-31T15:42:48.958Z,96494.54
2019-01-31T15:45:35.568Z,96492.64
2019-01-31T15:48:25.379Z,96494.30
2019-01-31T15:51:12.769Z,96491.09
2019-01-31T15:54:00.483Z,96492.98
2019-01-31T15:56:47.971Z,96493.52
2019-01-31T15:59:35.553Z,96494.02
2019-01-31T16:02:22.628Z,96494.58
2019-01-31T16:05:18.848Z,96493.66
2019-01-31T16:07:59.749Z,96495.53
2019-01-31T16:10:47.550Z,96493.91
2019-01-31T16:13:34.932Z,96499.52
2019-01-31T16:16:22.043Z,96495.99
2019-01-31T16:19:09.679Z,96500.53
2019-01-31T16:21:56.894Z,96496.97
2019-01-31T16:24:44.623Z,96497.28
2019-01-31T16:27:32.460Z,96497.73
2019-01-31T16:30:20.814Z,96490.43
2019-01-31T16:33:08.229Z,96486.13
2019-01-31T16:35:55.717Z,96488.11
2019-01-31T16:38:42.989Z,96481.05
2019-01-31T16:41:30.401Z,96483.98
2019-01-31T16:44:18.128Z,96486.09
2019-01-31T16:47:06.077Z,96487.25
2019-01-31T16:49:54.922Z,96486.39
2019-01-31T16:52:42.049Z,96494.27
2019-01-31T16:55:30.374Z,96491.98
2019-01-31T16:58:17.914Z,96490.67
2019-01-31T17:01:06.182Z,96494.78
2019-01-31T17:03:53.789Z,96492.84
2019-01-31T17:06:41.308Z,96491.16
2019-01-31T17:09:28.940Z,96496.29
2019-01-31T17:12:16.884Z,96491.33
2019-01-31T17:15:05.735Z,96488.92
2019-01-31T17:17:53.197Z,96491.51
2019-01-31T17:20:42.148Z,96489.70
2019-01-31T17:23:29.528Z,96489.42
2019-01-31T17:26:16.860Z,96478.25
2019-01-31T17:29:03.978Z,96483.70
2019-01-31T17:31:51.201Z,96492.05
2019-01-31T17:34:38.533Z,96484.23
2019-01-31T17:37:26.249Z,96487.93
2019-01-31T17:40:22.278Z,96488.77
2019-01-31T17:43:09.802Z,96485.08
2019-01-31T17:45:57.534Z,96493.70
2019-01-31T17:48:44.964Z,96486.38
2019-01-31T17:51:32.492Z,96484.64
2019-01-31T17:54:19.856Z,96480.07
2019-01-31T17:57:07.505Z,96488.05
2019-01-31T17:59:54.654Z,96477.52
2019-01-31T18:02:45.391Z,96486.32
2019-01-31T18:05:31.039Z,96484.78
2019-01-31T18:08:18.359Z,96475.55
2019-01-31T18:11:05.788Z,96481.19
2019-01-31T18:13:53.104Z,96480.21
2019-01-31T18:16:40.529Z,96483.53
2019-01-31T18:19:28.056Z,96480.39
2019-01-31T18:22:15.183Z,96470.34
2019-01-31T18:25:02.706Z,96476.12
2019-01-31T18:27:52.967Z,96467.05
2019-01-31T18:30:39.307Z,96461.48
2019-01-31T18:33:27.601Z,96460.86
2019-01-31T18:36:15.977Z,96461.48
2019-01-31T18:39:05.144Z,96459.08
2019-01-31T18:41:52.885Z,96446.92
2019-01-31T18:44:40.105Z,96462.13
2019-01-31T18:47:27.585Z,96454.54
2019-01-31T18:50:18.853Z,96454.13
2019-01-31T18:53:06.321Z,96449.72
2019-01-31T18:55:53.309Z,96445.81
2019-01-31T18:58:40.616Z,96455.53
2019-01-31T19:01:27.711Z,96444.91
2019-01-31T19:04:15.241Z,96451.05
2019-01-31T19:07:02.587Z,96449.89
2019-01-31T19:09:50.040Z,96461.94
2019-01-31T19:12:37.202Z,96448.77
2019-01-31T19:15:26.433Z,96454.38
2019-01-31T19:18:13.583Z,96452.67
2019-01-31T19:21:00.905Z,96453.19
2019-01-31T19:23:48.534Z,96451.94
2019-01-31T19:26:36.266Z,96443.84
2019-01-31T19:29:24.424Z,96444.17
2019-01-31T19:32:11.891Z,96442.30
2019-01-31T19:34:59.167Z,96440.58
2019-01-31T19:37:46.575Z,96434.08
2019-01-31T19:40:36.573Z,96438.64
2019-01-31T19:43:23.577Z,96431.41
2019-01-31T19:46:16.635Z,96426.91
2019-01-31T19:48:59.771Z,96422.11
2019-01-31T19:51:47.074Z,96414.75
2019-01-31T19:54:34.397Z,96414.83
2019-01-31T19:57:21.779Z,96408.20
2019-01-31T20:00:12.522Z,96405.33
2019-01-31T20:02:59.786Z,96397.89
2019-01-31T20:05:46.957Z,96161.47
2019-01-31T20:08:34.178Z,96398.06
2019-01-31T20:11:21.608Z,96393.86
2019-01-31T20:14:09.238Z,96389.03
2019-01-31T20:16:56.850Z,96384.00
2019-01-31T20:19:44.284Z,96384.19
2019-01-31T20:22:32.222Z,96381.50
2019-01-31T20:25:20.257Z,96379.41
2019-01-31T20:28:07.683Z,96387.80
2019-01-31T20:30:55.003Z,96382.48
2019-01-31T20:33:42.358Z,96380.08
2019-01-31T20:36:32.051Z,96375.98
2019-01-31T20:39:19.429Z,96374.11
2019-01-31T20:42:06.733Z,96380.22
2019-01-31T20:44:54.279Z,96374.94
2019-01-31T20:47:41.412Z,96374.91
2019-01-31T20:50:31.174Z,96375.25
2019-01-31T20:53:18.798Z,96377.16
2019-01-31T20:56:06.250Z,96368.70
2019-01-31T20:58:53.935Z,96356.64
2019-01-31T21:01:41.275Z,96350.15
2019-01-31T21:04:28.660Z,96339.17
2019-01-31T21:07:16.144Z,96323.98
2019-01-31T21:10:05.085Z,96321.90
2019-01-31T21:12:52.922Z,96329.44
2019-01-31T21:15:40.052Z,96332.42
2019-01-31T21:18:27.254Z,96343.52
2019-01-31T21:21:15.214Z,96338.48
2019-01-31T21:24:02.511Z,96340.63
2019-01-31T21:26:49.357Z,96330.94
2019-01-31T21:29:36.745Z,96320.42
2019-01-31T21:32:23.950Z,96319.36
2019-01-31T21:35:11.593Z,96313.41
2019-01-31T21:37:59.127Z,96314.99
2019-01-31T21:40:47.362Z,96319.54
2019-01-31T21:43:35.094Z,96311.39
2019-01-31T21:46:22.210Z,96312.59
2019-01-31T21:49:10.212Z,96312.14
2019-01-31T21:51:57.581Z,96307.59
2019-01-31T21:54:44.618Z,96306.02
2019-01-31T21:57:32.007Z,96304.37
2019-01-31T22:00:23.222Z,96312.13
2019-01-31T22:03:10.499Z,96302.56
2019-01-31T22:05:57.585Z,96301.56
2019-01-31T22:08:44.674Z,96301.27
2019-01-31T22:11:32.100Z,96297.02
2019-01-31T22:14:19.725Z,96292.16
2019-01-31T22:17:14.326Z,96283.03
2019-01-31T22:19:55.702Z,96280.59
2019-01-31T22:22:43.231Z,96279.02
2019-01-31T22:25:30.775Z,96281.91
2019-01-31T22:28:18.590Z,96288.14
2019-01-31T22:31:06.025Z,96287.42
2019-01-31T22:33:53.960Z,96289.24
2019-01-31T22:36:43.560Z,96289.91
2019-01-31T22:39:30.819Z,96292.77
2019-01-31T22:42:18.370Z,96288.54
2019-01-31T22:45:09.479Z,96289.54
2019-01-31T22:47:57.108Z,96288.02
2019-01-31T22:50:44.434Z,96280.34
2019-01-31T22:53:31.670Z,96270.70
2019-01-31T22:56:18.765Z,96265.86
2019-01-31T22:59:06.601Z,96257.91
2019-01-31T23:01:53.920Z,96260.30
2019-01-31T23:04:41.037Z,96261.75
2019-01-31T23:07:28.572Z,96261.33
2019-01-31T23:10:16.192Z,96255.41
2019-01-31T23:13:03.513Z,96253.84
2019-01-31T23:15:50.631Z,96243.25
2019-01-31T23:18:38.160Z,96245.50
2019-01-31T23:21:25.786Z,96240.45
2019-01-31T23:24:13.524Z,96244.71
2019-01-31T23:27:01.247Z,96242.25
2019-01-31T23:29:48.877Z,96236.30
2019-01-31T23:32:36.153Z,96239.38
2019-01-31T23:35:24.032Z,96239.15
2019-01-31T23:38:11.253Z,96231.42
2019-01-31T23:40:59.007Z,96240.13
2019-01-31T23:43:46.366Z,96227.72
2019-01-31T23:46:33.733Z,96213.63
2019-01-31T23:49:21.425Z,96234.67
2019-01-31T23:52:08.375Z,96228.78
2019-01-31T23:54:55.522Z,96226.11
2019-01-31T23:57:42.773Z,96219.20
